Aginskoe, Russia
Current Conditions -  °F | °C
As of 5:00 AM on Monday 24 Nov 2014 (Local Time) from UIAA Reporting Station
Clear Clear  
Wind Chill: -19°   Ceiling: Unl
Heat Index: -8°   Visibility: 6mi
Dew Point: -11°   Wind: 4mph
Humidity: 84%   Direction: NA
Pressure: 30.06"   Gusts: NA
Location:  51.1°N, 114.52°E
Report Text: UIAA 232000Z VRB02MPS 9999 SKC M22/M24 Q1018 NOSIG RMK QFE70529CLRD70
Loading
Personal Weather Stations






























Interactive Weather Map New forecast layout! Learn more

10-Day Weather Forecast

Advertisements
Track Severe Weather on mobile